Time;durP1;ratioP1;P1;durP2;ratioP2;P2;SDS_P1;SDS_P2;PMS_P1;PMS_P2;Temp;Humidity;BMP_temperature;BMP_pressure;BME280_temperature;BME280_humidity;BME280_pressure;Samples;Min_cycle;Max_cycle;Signal;HPM_P1;HPM_P2
2020/12/07 00:01:33;;;;;;;23.23;14.02;;;;;;;4.93;100.00;96524.19;5110797;28;20023;-72
2020/12/07 00:03:58;;;;;;;23.33;12.98;;;;;;;5.02;100.00;96516.19;5111000;28;20024;-72
2020/12/07 00:06:24;;;;;;;21.98;13.52;;;;;;;5.17;100.00;96522.16;5110704;28;20079;-73
2020/12/07 00:08:49;;;;;;;23.60;14.70;;;;;;;5.18;100.00;96512.94;5109821;28;20051;-73
2020/12/07 00:11:14;;;;;;;;;;;;;;;5.27;100.00;96518.47;5111605;28;20028;-73
2020/12/07 00:13:40;;;;;;;21.67;11.57;;;;;;;5.26;100.00;96527.72;5111225;28;19912;-73
2020/12/07 00:16:09;;;;;;;;;;;;;;;5.29;100.00;96527.91;5111522;28;20031;-74
2020/12/07 00:18:36;;;;;;;20.08;11.50;;;;;;;5.38;100.00;96520.75;5111081;28;20330;-74
2020/12/07 00:21:02;;;;;;;20.92;12.02;;;;;;;5.27;100.00;96503.03;5111260;28;20027;-74
2020/12/07 00:23:27;;;;;;;23.38;13.43;;;;;;;5.34;100.00;96521.63;5110980;28;20027;-74
2020/12/07 00:25:53;;;;;;;19.90;11.95;;;;;;;5.30;100.00;96515.97;5110945;28;20031;-74
2020/12/07 00:28:18;;;;;;;16.52;11.63;;;;;;;5.31;100.00;96516.78;5108392;28;20111;-74
2020/12/07 00:30:46;;;;;;;22.23;12.55;;;;;;;5.28;100.00;96523.63;5095207;28;20438;-74
2020/12/07 00:33:11;;;;;;;18.27;12.70;;;;;;;5.34;100.00;96521.63;5090685;28;20028;-74
2020/12/07 00:35:36;;;;;;;20.67;12.63;;;;;;;5.38;100.00;96534.28;5090372;28;20111;-74
2020/12/07 00:38:02;;;;;;;20.95;12.88;;;;;;;5.40;100.00;96526.66;5089211;28;20468;-73
2020/12/07 00:40:27;;;;;;;23.70;12.02;;;;;;;5.37;100.00;96529.97;5090931;28;20094;-73
2020/12/07 00:42:53;;;;;;;17.90;12.05;;;;;;;5.40;100.00;96539.41;5093340;28;20040;-74
2020/12/07 00:45:18;;;;;;;19.08;11.15;;;;;;;5.38;100.00;96533.47;5094130;28;20036;-74
2020/12/07 00:47:43;;;;;;;19.52;11.23;;;;;;;5.29;100.00;96524.44;5094633;28;20020;-74
2020/12/07 00:50:09;;;;;;;20.05;12.27;;;;;;;5.33;100.00;96547.91;5094853;28;20407;-74
2020/12/07 00:52:34;;;;;;;16.92;10.88;;;;;;;5.33;100.00;96558.75;5094509;28;20490;-73
2020/12/07 00:55:00;;;;;;;26.40;13.15;;;;;;;5.29;100.00;96546.13;5094524;28;20024;-74
2020/12/07 00:57:25;;;;;;;;;;;;;;;5.35;100.00;96572.84;5095141;28;20374;-74
2020/12/07 00:59:51;;;;;;;19.10;11.98;;;;;;;5.29;100.00;96563.16;5094436;28;19939;-74
2020/12/07 01:02:16;;;;;;;30.42;15.77;;;;;;;5.25;100.00;96572.19;5093036;28;20488;-74
2020/12/07 01:04:41;;;;;;;24.55;13.00;;;;;;;5.27;100.00;96567.25;5092996;28;20039;-74
2020/12/07 01:07:07;;;;;;;22.50;11.98;;;;;;;5.22;100.00;96565.47;5094284;28;20028;-74
2020/12/07 01:09:32;;;;;;;19.50;11.95;;;;;;;5.18;100.00;96559.00;5094094;28;20024;-73
2020/12/07 01:11:59;;;;;;;;;;;;;;;5.20;100.00;96581.19;5093241;28;20024;-74
2020/12/07 01:14:24;;;;;;;18.45;11.30;;;;;;;5.15;100.00;96572.34;5093812;28;19920;-74
2020/12/07 01:16:51;;;;;;;17.50;10.55;;;;;;;5.20;100.00;96591.25;5094136;28;20496;-74
2020/12/07 01:19:16;;;;;;;35.03;17.58;;;;;;;5.24;100.00;96597.66;5094082;28;20019;-73
2020/12/07 01:21:42;;;;;;;26.98;14.80;;;;;;;5.18;100.00;96579.88;5094233;28;20024;-74
2020/12/07 01:24:08;;;;;;;31.23;14.35;;;;;;;5.13;100.00;96578.06;5094037;28;20493;-74
2020/12/07 01:26:34;;;;;;;29.65;15.32;;;;;;;5.09;100.00;96590.59;5093722;28;20370;-74
2020/12/07 01:29:00;;;;;;;24.70;12.98;;;;;;;5.06;100.00;96582.25;5093856;28;20032;-76
2020/12/07 01:31:26;;;;;;;17.73;10.07;;;;;;;5.07;100.00;96578.44;5092099;28;20500;-74
2020/12/07 01:33:51;;;;;;;20.63;11.00;;;;;;;5.03;100.00;96586.34;5093460;28;20024;-74
2020/12/07 01:36:17;;;;;;;16.50;9.32;;;;;;;4.94;100.00;96587.31;5093339;28;20058;-73
2020/12/07 01:38:42;;;;;;;15.23;10.40;;;;;;;4.96;100.00;96595.94;5093918;28;20047;-74
2020/12/07 01:41:08;;;;;;;21.33;11.82;;;;;;;4.97;100.00;96603.78;5093733;28;20024;-74
2020/12/07 01:43:33;;;;;;;18.75;10.98;;;;;;;4.97;100.00;96625.44;5091871;28;20052;-74
2020/12/07 01:45:58;;;;;;;;;;;;;;;4.98;100.00;96640.59;5094443;28;20362;-74
2020/12/07 01:48:25;;;;;;;16.83;8.52;;;;;;;4.95;100.00;96643.88;5093440;28;19916;-74
2020/12/07 01:50:52;;;;;;;14.25;9.93;;;;;;;4.93;100.00;96648.81;5093797;28;20032;-74
2020/12/07 01:53:18;;;;;;;14.85;10.20;;;;;;;4.67;100.00;96626.66;5093090;28;20468;-74
2020/12/07 01:55:44;;;;;;;24.08;11.05;;;;;;;4.77;100.00;96648.19;5093526;28;20033;-74
2020/12/07 01:58:10;;;;;;;13.18;9.02;;;;;;;4.84;100.00;96637.00;5091936;28;20073;-74
2020/12/07 02:00:36;;;;;;;14.32;9.15;;;;;;;4.85;100.00;96625.09;5091596;28;20115;-74
2020/12/07 02:03:01;;;;;;;11.85;8.30;;;;;;;4.97;100.00;96630.88;5092987;28;20110;-74
2020/12/07 02:05:27;;;;;;;14.85;8.85;;;;;;;5.00;100.00;96635.69;5093025;28;20054;-74
2020/12/07 02:08:11;;;;;;;12.57;8.43;;;;;;;5.17;100.00;96629.78;5093118;28;20074;-74
2020/12/07 02:10:37;;;;;;;12.45;7.65;;;;;;;5.13;100.00;96631.47;5092746;28;20038;-74
2020/12/07 02:13:02;;;;;;;10.57;7.97;;;;;;;5.09;100.00;96642.06;5091484;28;20032;-74
2020/12/07 02:15:28;;;;;;;9.52;7.97;;;;;;;5.06;100.00;96634.53;5092783;28;20030;-77
2020/12/07 02:17:53;;;;;;;12.70;9.00;;;;;;;5.00;100.00;96630.28;5092889;28;20044;-74
2020/12/07 02:20:19;;;;;;;12.75;8.13;;;;;;;4.92;100.00;96628.22;5109039;28;20115;-74
2020/12/07 02:22:44;;;;;;;;;;;;;;;4.89;100.00;96652.41;5093368;28;20381;-74
2020/12/07 02:25:09;;;;;;;15.23;8.68;;;;;;;4.79;100.00;96651.41;5092620;28;19912;-74
2020/12/07 02:27:34;;;;;;;;;;;;;;;4.76;100.00;96662.03;5093099;28;20024;-74
2020/12/07 02:30:00;;;;;;;15.48;8.85;;;;;;;4.76;100.00;96659.31;5090962;28;20353;-74
2020/12/07 02:32:25;;;;;;;;;;;;;;;4.78;100.00;96668.78;5092991;28;20020;-74
2020/12/07 02:34:51;;;;;;;13.63;8.10;;;;;;;4.63;100.00;96658.13;5090976;28;19912;-74
2020/12/07 02:37:16;;;;;;;;;;;;;;;4.68;100.00;96676.19;5093090;28;20069;-74
2020/12/07 02:39:41;;;;;;;11.30;8.45;;;;;;;4.67;100.00;96667.28;5090992;28;20006;-73
2020/12/07 02:42:07;;;;;;;11.27;7.78;;;;;;;4.65;100.00;96682.19;5090798;28;20028;-74
2020/12/07 02:44:32;;;;;;;11.95;8.10;;;;;;;4.56;100.00;96682.03;5090860;28;20055;-74
2020/12/07 02:46:58;;;;;;;;;;;;;;;4.53;100.00;96684.50;5092790;28;20504;-74
2020/12/07 02:49:24;;;;;;;15.05;9.00;;;;;;;4.45;100.00;96677.81;5092286;28;19919;-74
2020/12/07 02:51:50;;;;;;;18.50;9.70;;;;;;;4.43;100.00;96677.31;5092539;28;20024;-74
2020/12/07 02:54:15;;;;;;;13.15;8.63;;;;;;;4.40;100.00;96685.19;5092373;28;20074;-74
2020/12/07 02:56:41;;;;;;;14.10;8.80;;;;;;;4.37;100.00;96674.94;5090663;28;20035;-74
2020/12/07 02:59:06;;;;;;;14.82;8.27;;;;;;;4.35;100.00;96682.53;5091951;28;20481;-74
2020/12/07 03:01:32;;;;;;;13.25;9.43;;;;;;;4.24;100.00;96671.81;5091763;28;20396;-74
2020/12/07 03:03:57;;;;;;;21.50;10.00;;;;;;;4.15;100.00;96670.03;5089939;28;20028;-74
2020/12/07 03:06:23;;;;;;;15.02;10.43;;;;;;;4.05;100.00;96672.81;5091772;28;20039;-74
2020/12/07 03:08:48;;;;;;;18.13;10.25;;;;;;;4.06;100.00;96680.66;5091946;28;20020;-74
2020/12/07 03:11:14;;;;;;;14.57;9.20;;;;;;;4.00;100.00;96692.63;5091584;28;20039;-74
2020/12/07 03:13:39;;;;;;;16.75;9.70;;;;;;;3.97;100.00;96687.78;5091774;28;20020;-74
2020/12/07 03:16:05;;;;;;;14.95;8.35;;;;;;;4.00;100.00;96697.22;5091837;28;20027;-74
2020/12/07 03:18:30;;;;;;;12.48;9.13;;;;;;;3.91;100.00;96694.34;5091746;28;20020;-74
2020/12/07 03:20:55;;;;;;;;;;;;;;;3.81;100.00;96702.53;5091131;28;20500;-74
2020/12/07 03:23:21;;;;;;;13.35;8.80;;;;;;;3.75;100.00;96690.94;5091464;28;20285;-74
2020/12/07 03:25:46;;;;;;;;;;;;;;;3.82;100.00;96709.56;5090415;28;20036;-73
2020/12/07 03:28:11;;;;;;;14.02;7.88;;;;;;;3.68;100.00;96703.16;5091475;28;19923;-74
2020/12/07 03:30:37;;;;;;;;;;;;;;;3.56;100.00;96710.84;5091723;28;20477;-74
2020/12/07 03:33:02;;;;;;;14.00;8.50;;;;;;;3.51;100.00;96716.28;5091386;28;19904;-74
2020/12/07 03:35:28;;;;;;;14.77;9.25;;;;;;;3.54;100.00;96707.63;5091376;28;20031;-74
2020/12/07 03:37:53;;;;;;;;;;;;;;;3.56;100.00;96713.53;5091686;28;20038;-74
2020/12/07 03:40:18;;;;;;;14.20;8.90;;;;;;;3.50;100.00;96709.25;5091437;28;19922;-74
2020/12/07 03:42:44;;;;;;;;;;;;;;;3.58;100.00;96711.34;5091493;28;20492;-74
2020/12/07 03:45:09;;;;;;;14.93;8.98;;;;;;;3.56;100.00;96717.06;5091166;28;19916;-74
2020/12/07 03:47:34;;;;;;;14.50;8.50;;;;;;;3.47;100.00;96726.03;5091526;28;20066;-74
2020/12/07 03:50:00;;;;;;;14.48;8.57;;;;;;;3.56;100.00;96725.16;5091249;28;20032;-74
2020/12/07 03:52:25;;;;;;;11.38;8.63;;;;;;;3.41;100.00;96735.25;5091123;28;20035;-74
2020/12/07 03:54:51;;;;;;;11.75;8.07;;;;;;;3.34;100.00;96732.06;5091055;28;20456;-74
2020/12/07 03:57:16;;;;;;;18.90;10.75;;;;;;;3.37;100.00;96745.81;5090388;28;20107;-76
2020/12/07 03:59:41;;;;;;;24.48;10.73;;;;;;;3.21;100.00;96728.06;5108848;28;20030;-74
2020/12/07 04:02:07;;;;;;;;;;;;;;;3.34;100.00;96745.56;5103924;28;20468;-74
2020/12/07 04:04:47;;;;;;;33.20;11.20;;;;;;;3.26;100.00;96740.75;5090759;28;19999;-74
2020/12/07 04:07:13;;;;;;;24.65;10.00;;;;;;;3.24;100.00;96739.13;5090857;28;20024;-75
2020/12/07 04:09:38;;;;;;;20.02;10.25;;;;;;;3.24;100.00;96747.25;5089813;28;20008;-74
2020/12/07 04:12:04;;;;;;;19.85;11.13;;;;;;;3.24;100.00;96743.72;5091043;28;20036;-74
2020/12/07 04:14:29;;;;;;;14.70;9.70;;;;;;;3.36;100.00;96762.28;5098451;28;20440;-73
2020/12/07 04:16:54;;;;;;;;;;;;;;;3.30;100.00;96768.81;5111999;28;20027;-74
2020/12/07 04:19:20;;;;;;;18.15;10.80;;;;;;;3.17;100.00;96762.13;5111976;28;20334;-74
2020/12/07 04:21:45;;;;;;;;;;;;;;;3.29;100.00;96772.63;5115346;28;20081;-74
2020/12/07 04:24:10;;;;;;;18.65;9.55;;;;;;;3.15;100.00;96783.22;5114966;28;19911;-83
2020/12/07 04:26:36;;;;;;;;;;;;;;;3.10;100.00;96781.31;5115711;28;20539;-74
2020/12/07 04:29:01;;;;;;;26.73;12.32;;;;;;;3.04;100.00;96777.03;5115365;28;20311;-79
2020/12/07 04:31:27;;;;;;;;;;;;;;;3.09;100.00;96785.13;5114851;28;20034;-80
2020/12/07 04:33:52;;;;;;;21.85;10.60;;;;;;;3.17;100.00;96771.03;5111564;28;19943;-74
2020/12/07 04:36:18;;;;;;;;;;;;;;;3.05;100.00;96773.25;5110417;28;20028;-74
2020/12/07 04:38:43;;;;;;;31.20;11.90;;;;;;;2.99;100.00;96773.56;5110642;28;19919;-74
2020/12/07 04:41:08;;;;;;;;;;;;;;;3.00;100.00;96764.38;5109819;28;20028;-75
2020/12/07 04:43:35;;;;;;;27.85;13.82;;;;;;;2.97;100.00;96765.75;5110860;28;19922;-73
2020/12/07 04:46:00;;;;;;;20.13;11.73;;;;;;;3.00;100.00;96776.00;5093901;28;20043;-74
2020/12/07 04:48:27;;;;;;;26.73;13.43;;;;;;;2.89;100.00;96763.59;5109435;28;20028;-74
2020/12/07 04:50:54;;;;;;;26.20;14.07;;;;;;;2.90;100.00;96777.91;5106208;28;20024;-73
2020/12/07 04:53:21;;;;;;;25.85;13.50;;;;;;;2.79;100.00;96781.75;5090631;28;20446;-74
2020/12/07 04:55:46;;;;;;;21.02;10.73;;;;;;;2.71;100.00;96777.69;5089587;28;20028;-74
2020/12/07 04:58:14;;;;;;;14.35;10.32;;;;;;;2.64;100.00;96787.97;5089592;28;20032;-74
2020/12/07 05:00:40;;;;;;;14.05;9.73;;;;;;;2.70;100.00;96800.38;5091040;28;20020;-74
2020/12/07 05:03:06;;;;;;;18.52;10.55;;;;;;;2.61;100.00;96791.22;5096656;28;20028;-74
2020/12/07 05:05:31;;;;;;;15.82;10.38;;;;;;;2.68;100.00;96797.97;5111046;28;20031;-73
2020/12/07 05:07:58;;;;;;;15.80;9.75;;;;;;;2.71;100.00;96810.09;5111566;28;20020;-74
2020/12/07 05:10:46;;;;;;;17.45;9.75;;;;;;;2.63;100.00;96797.16;5111261;28;20028;-74
2020/12/07 05:15:42;;;;;;;10.73;7.43;;;;;;;2.63;100.00;96814.16;5110278;28;20016;-74
2020/12/07 05:18:08;;;;;;;10.68;6.45;;;;;;;2.70;100.00;96819.25;5110287;28;20054;-74
2020/12/07 05:20:33;;;;;;;14.23;7.90;;;;;;;2.59;100.00;96806.88;5108965;28;20071;-74
2020/12/07 05:23:00;;;;;;;12.05;7.75;;;;;;;2.68;100.00;96813.34;5110566;28;20034;-74
2020/12/07 05:25:27;;;;;;;10.55;7.00;;;;;;;2.57;100.00;96830.63;5110318;28;20036;-75
2020/12/07 05:27:53;;;;;;;19.38;9.75;;;;;;;2.39;100.00;96828.47;5112872;28;20040;-74
2020/12/07 05:30:23;;;;;;;14.60;8.48;;;;;;;2.46;100.00;96837.13;5112905;28;20224;-74
2020/12/07 05:32:49;;;;;;;15.57;7.93;;;;;;;2.49;100.00;96839.28;5113878;28;20047;-74
2020/12/07 05:35:14;;;;;;;19.85;9.50;;;;;;;2.49;100.00;96842.78;5113957;28;20507;-74
2020/12/07 05:37:40;;;;;;;28.60;10.70;;;;;;;2.47;100.00;96852.25;5113732;28;20028;-75
2020/12/07 05:40:08;;;;;;;18.00;8.63;;;;;;;2.53;100.00;96846.56;5113650;28;20034;-74
2020/12/07 05:42:34;;;;;;;16.55;8.63;;;;;;;2.66;100.00;96866.81;5112321;28;20613;-74
2020/12/07 05:45:02;;;;;;;19.65;9.52;;;;;;;2.50;100.00;96862.50;5112350;28;20028;-73
2020/12/07 05:47:32;;;;;;;16.52;9.43;;;;;;;2.56;100.00;96869.50;5112830;28;20032;-76
2020/12/07 05:49:58;;;;;;;18.23;10.35;;;;;;;2.53;100.00;96862.75;5113745;28;20027;-74
2020/12/07 05:52:42;;;;;;;16.95;8.48;;;;;;;2.50;100.00;96868.69;5113923;28;20029;-74
2020/12/07 05:55:10;;;;;;;17.60;9.88;;;;;;;2.53;100.00;96861.94;5113536;28;20563;-74
2020/12/07 05:57:45;;;;;;;16.77;7.07;;;;;;;2.48;100.00;96861.94;5108641;27;20031;-74
2020/12/07 06:00:18;;;;;;;15.50;8.43;;;;;;;2.43;100.00;96864.63;5102909;28;20031;-74
2020/12/07 06:02:48;;;;;;;16.02;8.13;;;;;;;2.43;100.00;96872.75;5100749;28;21712;-74
2020/12/07 06:05:15;;;;;;;13.63;8.52;;;;;;;2.37;100.00;96868.41;5100077;28;20114;-74
2020/12/07 06:07:44;;;;;;;11.27;6.90;;;;;;;2.27;100.00;96880.00;5103475;28;20065;-74
2020/12/07 06:10:12;;;;;;;11.05;7.47;;;;;;;2.45;100.00;96859.78;5101355;28;20532;-74
2020/12/07 06:12:43;;;;;;;16.75;7.32;;;;;;;2.21;100.00;96869.50;5100560;28;20546;-74
2020/12/07 06:15:09;;;;;;;8.43;6.72;;;;;;;2.13;100.00;96860.84;5100932;28;20019;-74
2020/12/07 06:17:35;;;;;;;9.30;6.97;;;;;;;2.17;100.00;96883.50;5104468;28;20019;-74
2020/12/07 06:20:00;;;;;;;12.65;5.97;;;;;;;2.30;100.00;96874.09;5106324;28;20035;-74
2020/12/07 06:22:28;;;;;;;14.52;6.75;;;;;;;2.30;100.00;96868.69;5107342;28;20024;-74
2020/12/07 06:24:57;;;;;;;11.38;6.90;;;;;;;2.34;100.00;96868.97;5103300;28;20027;-74
2020/12/07 06:27:25;;;;;;;10.45;6.97;;;;;;;2.37;100.00;96884.59;5106555;28;20016;-74
2020/12/07 06:30:02;;;;;;;11.82;6.43;;;;;;;2.11;100.00;96887.28;5106246;28;20016;-75
2020/12/07 06:32:54;;;;;;;14.75;7.72;;;;;;;2.16;100.00;96889.19;5098702;28;20123;-73
2020/12/07 06:35:20;;;;;;;16.33;6.80;;;;;;;1.97;100.00;96894.25;5102737;28;20028;-74
2020/12/07 06:37:47;;;;;;;10.27;6.43;;;;;;;1.83;100.00;96893.16;5095718;28;20029;-74
2020/12/07 06:40:15;;;;;;;8.07;6.05;;;;;;;1.93;100.00;96895.88;5098833;28;20024;-72
2020/12/07 06:42:43;;;;;;;17.17;7.22;;;;;;;1.91;100.00;96908.03;5096767;28;20056;-73
2020/12/07 06:45:19;;;;;;;22.73;8.60;;;;;;;2.02;100.00;96921.25;5094758;28;20107;-73
2020/12/07 06:47:45;;;;;;;;;;;;;;;2.05;100.00;96931.50;5095397;28;20536;-73
2020/12/07 06:50:15;;;;;;;22.42;10.65;;;;;;;1.89;100.00;96937.94;5098777;28;19979;-72
2020/12/07 06:52:42;;;;;;;15.23;10.23;;;;;;;1.93;100.00;96949.00;5100637;28;20019;-72
2020/12/07 06:55:13;;;;;;;14.50;8.68;;;;;;;1.81;100.00;96943.84;5098172;28;20031;-74
2020/12/07 06:57:42;;;;;;;19.60;10.05;;;;;;;1.85;100.00;96947.59;5092207;28;20028;-74
2020/12/07 07:00:13;;;;;;;34.58;10.15;;;;;;;1.80;100.00;96926.03;5099550;28;20480;-73
2020/12/07 07:02:43;;;;;;;15.57;8.85;;;;;;;1.85;100.00;96931.44;5110761;27;20028;-73
2020/12/07 07:05:10;;;;;;;15.55;7.85;;;;;;;1.86;100.00;96943.84;5110971;28;20365;-73
2020/12/07 07:07:36;;;;;;;15.18;9.23;;;;;;;1.98;100.00;96941.72;5110418;28;20047;-73
2020/12/07 07:10:02;;;;;;;20.48;10.07;;;;;;;2.11;100.00;96943.09;5105673;28;20020;-73
2020/12/07 07:12:28;;;;;;;15.05;8.57;;;;;;;2.09;100.00;96964.16;5091055;28;20035;-74
2020/12/07 07:14:56;;;;;;;17.60;10.85;;;;;;;2.28;100.00;96994.94;5090493;28;20020;-74
2020/12/07 07:17:24;;;;;;;16.70;9.27;;;;;;;2.52;100.00;96995.25;5090491;28;20106;-74
2020/12/07 07:19:49;;;;;;;23.42;10.32;;;;;;;2.53;100.00;96992.28;5090222;28;20481;-73
2020/12/07 07:22:15;;;;;;;22.20;10.40;;;;;;;2.44;100.00;97004.69;5091159;28;20032;-74
2020/12/07 07:24:59;;;;;;;13.43;8.52;;;;;;;2.50;100.00;97008.22;5090185;28;20031;-74
2020/12/07 07:30:10;;;;;;;22.13;9.48;;;;;;;2.58;100.00;97011.19;5110477;28;20043;-74
2020/12/07 07:32:39;;;;;;;18.92;8.90;;;;;;;2.65;100.00;97011.75;5110346;28;20044;-74
2020/12/07 07:35:05;;;;;;;13.23;8.02;;;;;;;2.65;100.00;97008.22;5109338;28;20395;-75
2020/12/07 07:37:30;;;;;;;13.57;8.70;;;;;;;2.71;100.00;97007.16;5109132;28;20027;-73
2020/12/07 07:40:01;;;;;;;20.63;8.38;;;;;;;2.79;100.00;97003.91;5091754;28;20039;-74
2020/12/07 07:42:28;;;;;;;38.33;12.00;;;;;;;2.88;100.00;96988.00;5103563;28;20079;-74
2020/12/07 07:44:54;;;;;;;21.17;10.55;;;;;;;2.98;100.00;96998.78;5097588;28;20043;-73
2020/12/07 07:47:27;;;;;;;50.72;18.63;;;;;;;3.04;100.00;97011.19;5089993;28;20131;-74
2020/12/07 08:16:55;;;;;;;13.57;7.57;;;;;;;2.98;100.00;97031.19;5109948;28;20034;-74
2020/12/07 08:19:22;;;;;;;15.73;7.80;;;;;;;2.95;100.00;97029.84;5109778;28;20047;-74
2020/12/07 08:21:48;;;;;;;12.00;6.63;;;;;;;3.02;100.00;97030.38;5099377;28;20016;-75
2020/12/07 08:24:13;;;;;;;17.08;8.05;;;;;;;2.94;100.00;97036.34;5089279;28;20047;-74
2020/12/07 08:26:42;;;;;;;;;;;;;;;3.22;100.00;97048.50;5089116;28;20198;-74
2020/12/07 08:29:07;;;;;;;44.70;13.55;;;;;;;3.26;100.00;97044.16;5089035;28;19961;-74
2020/12/07 08:31:37;;;;;;;23.17;9.45;;;;;;;3.14;100.00;97030.91;5089585;28;20119;-75
2020/12/07 08:34:11;;;;;;;17.42;7.63;;;;;;;3.29;100.00;97037.41;5089573;28;20512;-75
2020/12/07 08:36:37;;;;;;;13.50;7.72;;;;;;;3.33;100.00;97047.41;5094912;28;20039;-74
2020/12/07 08:39:04;;;;;;;11.15;7.88;;;;;;;3.41;100.00;97054.16;5098443;28;20028;-74
2020/12/07 08:41:32;;;;;;;41.88;13.50;;;;;;;3.50;100.00;97053.34;5089154;28;20479;-74
2020/12/07 08:44:08;;;;;;;37.15;13.82;;;;;;;3.63;100.00;97055.47;5087444;28;20083;-75
2020/12/07 08:46:37;;;;;;;54.22;19.55;;;;;;;3.52;100.00;97059.28;5087488;28;20047;-74
2020/12/07 08:49:04;;;;;;;67.38;20.83;;;;;;;3.50;100.00;97052.53;5090343;28;20020;-75
2020/12/07 08:51:32;;;;;;;54.42;20.10;;;;;;;3.59;100.00;97048.19;5109487;28;20078;-74
2020/12/07 08:53:59;;;;;;;36.97;18.02;;;;;;;3.83;100.00;97054.59;5110317;28;20016;-74
2020/12/07 08:56:25;;;;;;;28.70;17.10;;;;;;;4.06;99.71;97045.91;5109320;28;20031;-74
2020/12/07 08:58:50;;;;;;;13.65;10.07;;;;;;;4.24;98.47;97053.41;5105236;28;20906;-75
2020/12/07 09:01:16;;;;;;;17.45;10.68;;;;;;;4.37;97.92;97054.69;5098174;28;20469;-74
2020/12/07 09:03:46;;;;;;;14.82;7.28;;;;;;;4.37;96.49;97070.94;5097282;28;20481;-74
2020/12/07 09:06:13;;;;;;;12.40;7.70;;;;;;;4.22;97.36;97069.09;5100730;28;20475;-74
2020/12/07 09:08:40;;;;;;;15.18;7.55;;;;;;;4.75;95.33;97074.81;5101151;28;20038;-75
2020/12/07 09:11:07;;;;;;;12.60;7.43;;;;;;;5.83;89.54;97061.72;5099315;28;20024;-74
2020/12/07 09:13:34;;;;;;;15.55;9.32;;;;;;;7.32;81.12;97061.19;5100452;28;20027;-74
2020/12/07 09:15:59;;;;;;;14.43;7.43;;;;;;;7.29;83.66;97059.06;5099538;28;20024;-75
2020/12/07 09:18:25;;;;;;;8.65;5.80;;;;;;;6.41;85.02;97051.59;5100511;28;20027;-75
2020/12/07 09:20:50;;;;;;;16.13;9.20;;;;;;;5.24;89.58;97066.59;5100756;28;20561;-74
2020/12/07 09:23:16;;;;;;;11.43;8.07;;;;;;;5.11;91.56;97076.19;5102623;28;20159;-74
2020/12/07 09:25:42;;;;;;;13.93;8.75;;;;;;;5.22;90.39;97076.94;5098982;28;20507;-74
2020/12/07 09:28:08;;;;;;;15.82;9.70;;;;;;;5.33;91.34;97078.47;5103457;28;20039;-74
2020/12/07 09:30:34;;;;;;;21.67;12.98;;;;;;;5.09;91.55;97083.78;5102823;28;20078;-75
2020/12/07 09:32:59;;;;;;;11.27;7.80;;;;;;;4.57;93.39;97097.13;5093946;28;20082;-77
2020/12/07 09:35:24;;;;;;;11.35;7.55;;;;;;;4.35;95.79;97097.47;5092113;28;20512;-74
2020/12/07 09:37:50;;;;;;;8.93;6.20;;;;;;;4.31;96.10;97091.00;5092518;28;20032;-74
2020/12/07 09:40:15;;;;;;;18.45;7.60;;;;;;;4.38;97.13;97088.00;5112133;28;20024;-74
2020/12/07 09:42:41;;;;;;;19.30;8.52;;;;;;;4.52;96.71;97076.28;5112052;28;20044;-74
2020/12/07 09:45:07;;;;;;;;;;;;;;;4.85;96.49;97082.88;5111287;28;20582;-74
2020/12/07 09:47:33;;;;;;;17.67;9.85;;;;;;;5.01;95.02;97078.97;5097887;28;19919;-74
2020/12/07 09:49:58;;;;;;;8.65;6.10;;;;;;;5.27;95.37;97085.81;5091186;28;20028;-75
2020/12/07 09:52:24;;;;;;;9.82;7.03;;;;;;;5.39;94.60;97082.75;5092092;28;20035;-74
2020/12/07 09:54:49;;;;;;;;;;;;;;;5.46;93.48;97083.25;5092838;28;20431;-74
2020/12/07 09:57:15;;;;;;;8.63;6.68;;;;;;;5.26;94.84;97084.19;5092384;28;21018;-74
2020/12/07 09:59:41;;;;;;;10.55;7.07;;;;;;;5.12;95.57;97083.22;5090524;28;20034;-74
2020/12/07 10:02:06;;;;;;;;;;;;;;;5.40;95.09;97089.78;5106885;28;20031;-75
2020/12/07 10:04:32;;;;;;;11.73;7.07;;;;;;;5.21;94.80;97076.13;5110522;28;19935;-74
2020/12/07 10:06:57;;;;;;;10.75;6.15;;;;;;;5.03;96.45;97073.28;5111014;28;20046;-74
2020/12/07 10:09:23;;;;;;;38.72;12.80;;;;;;;5.05;97.44;97098.19;5112008;28;20457;-74
2020/12/07 10:11:49;;;;;;;;;;;;;;;5.39;95.84;97094.41;5112433;28;20034;-74
2020/12/07 10:14:15;;;;;;;44.88;18.52;;;;;;;5.15;96.29;97087.28;5112077;28;20426;-74
2020/12/07 10:16:44;;;;;;;32.80;12.93;;;;;;;5.11;96.54;97091.63;5107472;28;20453;-76
2020/12/07 10:19:10;;;;;;;21.25;11.27;;;;;;;4.99;96.20;97097.41;5099280;28;20050;-75
2020/12/07 10:21:36;;;;;;;16.88;9.27;;;;;;;4.90;96.43;97093.66;5095460;28;20056;-74
2020/12/07 10:24:02;;;;;;;19.65;9.55;;;;;;;4.89;97.67;97096.69;5104388;28;20499;-74
2020/12/07 10:26:27;;;;;;;22.83;12.27;;;;;;;5.01;98.99;97092.50;5111784;28;20114;-74
2020/12/07 10:28:53;;;;;;;17.75;10.40;;;;;;;5.21;98.22;97092.38;5110745;28;20024;-74
2020/12/07 10:31:19;;;;;;;;;;;;;;;5.19;98.10;97094.56;5112221;28;20024;-74
2020/12/07 10:33:45;;;;;;;30.98;15.00;;;;;;;5.05;98.10;97093.56;5111851;28;19920;-74
2020/12/07 10:36:10;;;;;;;33.25;18.05;;;;;;;5.09;97.91;97099.25;5091717;28;20043;-74
2020/12/07 10:38:36;;;;;;;14.77;8.02;;;;;;;5.01;98.80;97103.34;5090662;28;20020;-74
2020/12/07 10:41:01;;;;;;;;;;;;;;;5.10;97.28;97101.69;5095323;28;20094;-74
2020/12/07 10:43:26;;;;;;;29.88;13.90;;;;;;;4.69;98.45;97084.06;5109366;28;19966;-74
2020/12/07 10:45:52;;;;;;;;;;;;;;;5.09;97.99;97096.53;5089637;28;20032;-74
2020/12/07 10:48:17;;;;;;;22.30;10.45;;;;;;;5.05;98.12;97099.00;5090881;28;19916;-74
2020/12/07 10:50:42;;;;;;;;;;;;;;;5.05;98.22;97103.59;5090868;28;20036;-74
2020/12/07 10:53:08;;;;;;;11.48;8.48;;;;;;;5.07;97.88;97106.84;5090915;28;19965;-74
2020/12/07 10:55:33;;;;;;;11.82;7.05;;;;;;;5.12;98.25;97115.75;5090921;28;20392;-75
2020/12/07 10:57:59;;;;;;;15.35;9.25;;;;;;;5.03;98.77;97101.19;5091014;28;20402;-74
2020/12/07 11:00:24;;;;;;;17.90;8.95;;;;;;;5.00;99.03;97107.16;5090598;28;20503;-74
2020/12/07 11:02:49;;;;;;;15.18;8.85;;;;;;;4.99;99.41;97112.84;5090787;28;20077;-74
2020/12/07 11:05:15;;;;;;;18.98;10.57;;;;;;;4.82;100.00;97113.25;5090288;28;20568;-74
2020/12/07 11:07:42;;;;;;;13.10;9.43;;;;;;;4.78;100.00;97117.59;5090508;28;20020;-74
2020/12/07 11:10:07;;;;;;;16.80;10.05;;;;;;;4.67;100.00;97113.28;5090592;28;20028;-74
2020/12/07 11:12:32;;;;;;;15.07;10.27;;;;;;;4.71;100.00;97120.59;5090541;28;20383;-74
2020/12/07 11:14:58;;;;;;;17.67;12.80;;;;;;;4.59;100.00;97122.00;5090629;28;20024;-74
2020/12/07 11:17:23;;;;;;;;;;;;;;;4.61;100.00;97123.34;5103043;28;20032;-74
2020/12/07 11:19:49;;;;;;;20.35;10.52;;;;;;;4.59;100.00;97116.59;5110565;28;20013;-74
2020/12/07 11:22:14;;;;;;;12.52;8.90;;;;;;;4.62;100.00;97116.03;5109325;28;20027;-74
2020/12/07 11:24:39;;;;;;;18.30;11.60;;;;;;;4.52;100.00;97107.94;5090436;28;20016;-74
2020/12/07 11:27:05;;;;;;;;;;;;;;;4.55;100.00;97099.28;5090575;28;20032;-74
2020/12/07 11:29:31;;;;;;;24.00;11.95;;;;;;;4.55;100.00;97088.44;5107402;28;20424;-74
2020/12/07 11:31:57;;;;;;;22.90;12.02;;;;;;;4.53;100.00;97093.34;5109908;28;20028;-74
2020/12/07 11:34:22;;;;;;;24.00;12.52;;;;;;;4.57;100.00;97086.28;5109516;28;20024;-73
2020/12/07 11:36:54;;;;;;;20.05;11.65;;;;;;;4.66;100.00;97081.91;5110822;28;20494;-74
2020/12/07 11:44:38;;;;;;;29.10;14.15;;;;;;;5.41;100.00;97080.56;5092652;28;20131;-74
2020/12/07 11:47:05;;;;;;;;;;;;;;;5.73;100.00;97091.66;5100206;28;20099;-74
2020/12/07 11:49:30;;;;;;;20.42;10.40;;;;;;;6.28;98.93;97075.94;5098279;28;19927;-74
2020/12/07 11:52:01;;;;;;;18.02;11.35;;;;;;;6.54;95.88;97079.16;5097930;28;20020;-74
2020/12/07 11:54:26;;;;;;;18.35;9.60;;;;;;;6.62;95.43;97076.59;5099004;28;20058;-74
2020/12/07 11:56:55;;;;;;;23.23;11.40;;;;;;;6.63;94.97;97064.63;5096735;28;20452;-76
2020/12/07 11:59:20;;;;;;;14.77;9.48;;;;;;;6.82;95.08;97067.38;5100512;28;20049;-75
2020/12/07 12:01:45;;;;;;;15.50;8.95;;;;;;;6.85;93.64;97072.22;5090130;28;20028;-75
2020/12/07 12:04:11;;;;;;;;;;;;;;;6.99;92.92;97081.25;5108114;28;20396;-74
2020/12/07 12:06:38;;;;;;;11.52;8.05;;;;;;;6.75;93.30;97073.16;5109736;28;19962;-73
2020/12/07 12:09:06;;;;;;;12.80;8.43;;;;;;;6.73;93.22;97074.56;5108395;28;20023;-74